Time;durP1;ratioP1;P1;durP2;ratioP2;P2;SDS_P1;SDS_P2;PMS_P1;PMS_P2;Temp;Humidity;BMP_temperature;BMP_pressure;BME280_temperature;BME280_humidity;BME280_pressure;Samples;Min_cycle;Max_cycle;Signal;HPM_P1;HPM_P2
2022/04/22 00:00:33;;;;;;;66.72;35.38;;;;;;;7.47;95.46;98837.56;8510991;27;20043;-73
2022/04/22 00:04:39;;;;;;;69.00;36.97;;;;;;;7.45;95.22;98840.56;8523718;27;20034;-73
2022/04/22 00:08:40;;;;;;;61.08;32.55;;;;;;;7.44;95.29;98832.78;8526862;27;20051;-73
2022/04/22 00:12:41;;;;;;;66.03;33.25;;;;;;;7.43;95.21;98831.19;8528894;27;20572;-73
2022/04/22 00:16:42;;;;;;;67.00;35.67;;;;;;;7.42;95.11;98818.84;8520331;27;20047;-73
2022/04/22 00:20:43;;;;;;;71.50;37.47;;;;;;;7.42;95.21;98824.22;8488352;27;20103;-74
2022/04/22 00:24:44;;;;;;;62.47;33.97;;;;;;;7.44;95.32;98827.41;8530987;27;20042;-73
2022/04/22 00:28:46;;;;;;;63.15;33.45;;;;;;;7.43;95.42;98818.56;8536334;27;20058;-73
2022/04/22 00:32:47;;;;;;;69.35;37.33;;;;;;;7.42;95.29;98818.84;8523214;27;20501;-73
2022/04/22 00:36:48;;;;;;;73.75;38.40;;;;;;;7.42;95.50;98816.16;8511645;27;20074;-73
2022/04/22 00:40:49;;;;;;;81.38;42.40;;;;;;;7.44;95.32;98811.28;8546550;27;20057;-73
2022/04/22 00:44:50;;;;;;;90.82;46.13;;;;;;;7.47;95.21;98805.31;8519907;27;20058;-73
2022/04/22 00:48:51;;;;;;;83.07;43.47;;;;;;;7.53;95.69;98804.16;8525717;27;20054;-73
2022/04/22 00:52:52;;;;;;;84.68;43.75;;;;;;;7.51;95.83;98803.63;8517820;27;20452;-73
2022/04/22 00:56:53;;;;;;;80.30;43.80;;;;;;;7.45;96.51;98796.78;8525774;27;20058;-73
2022/04/22 01:00:54;;;;;;;82.50;43.72;;;;;;;7.46;96.16;98799.16;8474383;27;20103;-73
2022/04/22 01:13:36;;;;;;;85.65;43.85;;;;;;;7.44;96.29;98790.59;8520191;27;20107;-73
2022/04/22 01:17:37;;;;;;;75.90;41.53;;;;;;;7.46;96.27;98782.22;8511386;27;20110;-73
2022/04/22 01:21:38;;;;;;;71.20;39.35;;;;;;;7.47;95.92;98783.81;8527965;27;20046;-73
2022/04/22 01:25:39;;;;;;;76.03;40.47;;;;;;;7.42;96.72;98778.53;8509651;27;20400;-73
2022/04/22 01:29:40;;;;;;;75.55;39.75;;;;;;;7.40;96.57;98772.69;8534335;27;20038;-73
2022/04/22 01:33:41;;;;;;;71.13;37.88;;;;;;;7.43;96.56;98777.47;8510999;27;20053;-73
2022/04/22 01:37:43;;;;;;;65.70;34.55;;;;;;;7.39;97.24;98776.47;8532898;27;20043;-73
2022/04/22 01:41:44;;;;;;;64.13;35.00;;;;;;;7.41;96.93;98774.25;8519248;27;20045;-73
2022/04/22 01:45:45;;;;;;;68.63;35.60;;;;;;;7.44;96.79;98773.69;8526045;27;20047;-73
2022/04/22 01:49:46;;;;;;;69.30;35.67;;;;;;;7.47;96.58;98783.81;8525511;27;20520;-73
2022/04/22 01:53:47;;;;;;;70.38;38.40;;;;;;;7.48;96.59;98780.06;8529046;27;20091;-73
2022/04/22 01:57:48;;;;;;;70.60;37.90;;;;;;;7.48;96.62;98769.31;8514366;27;20544;-73
2022/04/22 02:01:49;;;;;;;68.70;35.85;;;;;;;7.53;96.10;98761.16;8532010;27;20065;-73
2022/04/22 02:05:50;;;;;;;74.45;38.58;;;;;;;7.51;96.38;98757.94;8514773;27;20049;-73
2022/04/22 02:09:51;;;;;;;68.75;37.40;;;;;;;7.54;96.28;98757.38;8511062;27;20061;-73
2022/04/22 02:13:52;;;;;;;69.80;37.85;;;;;;;7.51;96.82;98747.19;8502499;27;20051;-73
2022/04/22 02:17:53;;;;;;;72.45;37.65;;;;;;;7.51;96.98;98742.63;8470364;27;20076;-73
2022/04/22 02:21:54;;;;;;;66.15;35.45;;;;;;;7.54;97.00;98741.25;8531761;27;20043;-73
2022/04/22 02:25:55;;;;;;;64.18;35.28;;;;;;;7.56;97.13;98733.69;8522554;27;20045;-73
2022/04/22 02:29:56;;;;;;;70.22;36.35;;;;;;;7.58;97.34;98731.50;8488983;27;20049;-73
2022/04/22 02:33:57;;;;;;;69.22;35.63;;;;;;;7.63;97.47;98729.50;8474814;27;20050;-73
2022/04/22 02:37:58;;;;;;;66.90;35.95;;;;;;;7.67;97.30;98735.06;8501899;27;20157;-73
2022/04/22 02:46:18;;;;;;;60.45;35.05;;;;;;;7.72;97.67;98740.34;8524611;27;20042;-73
2022/04/22 02:50:19;;;;;;;69.82;35.95;;;;;;;7.76;97.39;98736.00;8481373;27;20050;-73
2022/04/22 02:54:19;;;;;;;65.68;34.00;;;;;;;7.80;97.33;98736.19;8534404;27;20073;-73
2022/04/22 02:58:21;;;;;;;60.58;34.03;;;;;;;7.79;97.12;98738.06;8523496;27;20054;-73
2022/04/22 03:02:21;;;;;;;60.90;33.50;;;;;;;7.77;97.19;98729.53;8460038;27;20103;-73
2022/04/22 03:06:26;;;;;;;55.95;31.88;;;;;;;7.77;96.98;98724.16;8503557;27;20488;-73
2022/04/22 03:10:27;;;;;;;66.60;35.10;;;;;;;7.72;97.30;98726.91;8502890;27;20043;-73
2022/04/22 03:14:29;;;;;;;60.22;34.45;;;;;;;7.68;97.54;98735.88;8511189;27;20047;-73
2022/04/22 03:18:30;;;;;;;63.95;35.63;;;;;;;7.67;97.39;98735.06;8524698;27;20764;-73
2022/04/22 03:22:31;;;;;;;62.65;34.63;;;;;;;7.68;97.19;98736.66;8490367;27;20046;-73
2022/04/22 03:26:32;;;;;;;67.40;36.90;;;;;;;7.68;97.02;98735.88;8528518;27;20069;-73
2022/04/22 03:30:37;;;;;;;64.85;35.60;;;;;;;7.63;97.33;98739.47;8504240;27;20045;-73
2022/04/22 03:34:38;;;;;;;64.35;33.88;;;;;;;7.63;97.49;98734.88;8528430;27;20062;-74
2022/04/22 03:38:40;;;;;;;63.33;34.25;;;;;;;7.64;97.60;98727.63;8549613;27;20504;-74
2022/04/22 03:42:41;;;;;;;84.93;46.70;;;;;;;7.67;97.42;98729.69;8524593;27;20051;-74
2022/04/22 03:46:42;;;;;;;83.78;44.50;;;;;;;7.71;97.37;98730.72;8457891;27;20050;-73
2022/04/22 03:50:43;;;;;;;76.88;41.60;;;;;;;7.75;97.33;98737.09;8502065;27;20046;-73
2022/04/22 03:54:44;;;;;;;76.82;35.80;;;;;;;7.73;97.54;98712.38;8484576;27;20054;-73
2022/04/22 03:58:46;;;;;;;61.85;33.40;;;;;;;7.77;97.29;98721.47;8529372;27;20057;-73
2022/04/22 04:02:47;;;;;;;65.15;34.17;;;;;;;7.81;97.14;98719.75;8534562;27;20042;-73
2022/04/22 04:06:48;;;;;;;64.70;34.17;;;;;;;7.80;96.97;98707.41;8540829;27;20184;-73
2022/04/22 04:23:50;;;;;;;88.15;38.53;;;;;;;7.88;96.57;98719.34;8513215;27;20519;-73
2022/04/22 04:27:51;;;;;;;92.03;39.00;;;;;;;7.86;96.53;98722.34;8531785;27;20050;-74
2022/04/22 04:31:51;;;;;;;145.85;48.22;;;;;;;7.88;96.29;98714.75;8512407;27;20371;-74
2022/04/22 04:35:53;;;;;;;105.75;42.50;;;;;;;7.92;96.29;98705.03;8476801;27;20053;-74
2022/04/22 04:39:55;;;;;;;84.85;39.75;;;;;;;7.93;96.43;98706.59;8511764;27;20071;-74
2022/04/22 04:43:56;;;;;;;84.47;39.00;;;;;;;7.98;96.36;98703.78;8505251;27;20050;-74
2022/04/22 04:47:57;;;;;;;81.68;39.95;;;;;;;8.02;96.26;98710.19;8481949;27;20408;-73
2022/04/22 04:51:58;;;;;;;82.60;38.47;;;;;;;8.07;96.36;98712.75;8512254;27;20133;-74
2022/04/22 04:55:59;;;;;;;73.05;37.88;;;;;;;8.15;96.50;98710.44;8511577;27;20050;-73
2022/04/22 05:00:08;;;;;;;71.32;37.65;;;;;;;8.20;96.61;98715.72;8484486;27;20043;-73
2022/04/22 05:04:09;;;;;;;72.78;39.45;;;;;;;8.27;96.84;98716.09;8462766;27;20035;-73
2022/04/22 05:08:10;;;;;;;67.60;36.83;;;;;;;8.30;96.80;98707.47;8524863;27;20057;-73
2022/04/22 05:12:11;;;;;;;71.38;38.30;;;;;;;8.35;96.68;98701.97;8531311;27;20043;-74
2022/04/22 05:16:12;;;;;;;87.25;42.17;;;;;;;8.42;96.79;98702.34;8510399;27;20457;-74
2022/04/22 05:20:15;;;;;;;67.47;38.42;;;;;;;8.53;96.48;98698.31;8479986;27;20119;-73
2022/04/22 05:24:16;;;;;;;68.40;37.13;;;;;;;8.64;96.35;98698.88;8538104;27;20042;-74
2022/04/22 05:28:17;;;;;;;73.40;39.75;;;;;;;8.71;96.03;98694.66;8527225;27;20445;-74
2022/04/22 05:32:37;;;;;;;85.07;42.33;;;;;;;8.76;95.98;98697.22;8532061;27;20079;-74
2022/04/22 05:36:38;;;;;;;78.47;41.78;;;;;;;8.77;95.79;98704.22;8504962;27;20053;-74
2022/04/22 05:40:39;;;;;;;79.15;41.90;;;;;;;8.80;95.79;98703.59;8505748;27;20457;-74
2022/04/22 05:44:40;;;;;;;72.50;40.42;;;;;;;8.84;95.91;98704.56;8503369;27;20051;-74
2022/04/22 05:48:43;;;;;;;71.93;38.85;;;;;;;8.84;95.99;98699.16;8513923;27;20051;-74
2022/04/22 05:52:44;;;;;;;68.15;35.72;;;;;;;8.85;95.53;98694.59;8519046;27;20058;-73
2022/04/22 05:56:45;;;;;;;61.95;36.15;;;;;;;8.84;95.26;98688.41;8471770;27;20481;-74
2022/04/22 06:00:47;;;;;;;63.67;31.95;;;;;;;8.84;95.02;98693.78;8518806;27;20058;-74
2022/04/22 06:04:48;;;;;;;61.28;32.45;;;;;;;8.96;94.24;98701.31;8513922;27;20043;-74
2022/04/22 06:13:09;;;;;;;63.17;35.83;;;;;;;9.12;94.10;98688.25;8520579;27;20047;-74
2022/04/22 06:17:10;;;;;;;70.63;39.25;;;;;;;9.22;93.69;98696.06;8545741;27;20098;-74
2022/04/22 06:21:11;;;;;;;71.25;39.55;;;;;;;9.30;93.68;98696.13;8560059;27;20050;-74
2022/04/22 06:25:12;;;;;;;83.20;45.25;;;;;;;9.44;93.28;98696.00;8559024;27;20357;-74
2022/04/22 06:29:14;;;;;;;70.03;40.13;;;;;;;9.52;92.78;98702.53;8549327;27;20055;-73
2022/04/22 06:33:16;;;;;;;63.28;34.33;;;;;;;9.53;92.23;98704.94;8541746;27;20148;-73
2022/04/22 06:37:18;;;;;;;55.58;32.03;;;;;;;9.62;90.68;98705.75;8547623;27;20042;-74
2022/04/22 06:45:48;;;;;;;59.70;30.23;;;;;;;9.78;89.06;98705.34;8562147;27;20045;-74
2022/04/22 06:49:48;;;;;;;59.17;33.03;;;;;;;9.88;88.25;98699.66;8508122;27;20042;-73
2022/04/22 06:53:52;;;;;;;59.22;32.40;;;;;;;10.03;87.44;98696.50;8553759;27;20057;-73
2022/04/22 06:57:56;;;;;;;61.53;33.70;;;;;;;10.14;86.94;98697.81;8555655;27;20045;-74
2022/04/22 07:01:58;;;;;;;58.70;33.10;;;;;;;10.35;86.22;98692.63;8542278;27;20042;-74
2022/04/22 07:05:59;;;;;;;63.35;33.28;;;;;;;10.53;86.06;98702.28;8547051;27;20045;-74
2022/04/22 07:10:01;;;;;;;60.97;32.45;;;;;;;10.76;84.63;98713.72;8529814;27;20526;-74
2022/04/22 07:14:02;;;;;;;55.38;30.23;;;;;;;10.88;83.34;98705.78;8542817;27;20046;-74
2022/04/22 07:18:03;;;;;;;60.47;31.33;;;;;;;11.04;82.89;98704.16;8455506;27;20050;-73
2022/04/22 07:22:05;;;;;;;65.50;32.60;;;;;;;11.19;81.98;98700.94;8507522;27;20070;-73
2022/04/22 07:26:10;;;;;;;56.65;31.55;;;;;;;11.35;81.50;98710.13;8530615;27;20368;-73
2022/04/22 07:30:12;;;;;;;54.53;29.00;;;;;;;11.50;79.58;98705.28;8507275;27;20053;-74
2022/04/22 07:34:14;;;;;;;58.40;29.65;;;;;;;11.64;78.68;98716.69;8542018;27;20047;-73
2022/04/22 07:38:15;;;;;;;49.90;27.95;;;;;;;11.75;77.60;98712.53;8545386;27;20088;-73
2022/04/22 07:42:20;;;;;;;49.00;26.17;;;;;;;11.88;77.07;98706.13;8494108;27;20054;-73
2022/04/22 07:50:42;;;;;;;38.47;21.35;;;;;;;11.96;73.47;98724.19;8561172;27;20052;-73
2022/04/22 07:54:43;;;;;;;39.03;21.38;;;;;;;11.91;72.54;98724.38;8559299;27;20498;-74
2022/04/22 07:58:44;;;;;;;41.30;21.42;;;;;;;11.84;72.20;98721.41;8482448;27;20046;-74
2022/04/22 08:02:45;;;;;;;35.33;21.25;;;;;;;11.70;72.67;98737.03;8542686;27;20058;-74
2022/04/22 08:06:46;;;;;;;38.60;22.35;;;;;;;11.64;73.92;98738.31;8531168;27;20484;-74
2022/04/22 08:10:47;;;;;;;33.85;19.73;;;;;;;11.63;73.80;98742.16;8521054;27;20492;-73
2022/04/22 08:14:49;;;;;;;30.10;18.13;;;;;;;11.74;73.25;98743.41;8527490;27;20050;-74
2022/04/22 08:18:50;;;;;;;30.70;17.95;;;;;;;11.99;72.84;98745.22;8493347;27;20078;-74
2022/04/22 08:22:51;;;;;;;26.30;15.38;;;;;;;12.11;70.59;98748.00;8529808;27;20053;-74
2022/04/22 08:26:52;;;;;;;28.10;16.95;;;;;;;12.11;70.58;98750.69;8534022;27;20141;-74
2022/04/22 08:30:53;;;;;;;23.55;15.27;;;;;;;12.18;71.05;98742.88;8533905;27;20137;-73
2022/04/22 08:34:54;;;;;;;24.75;15.30;;;;;;;12.15;71.24;98748.94;8533378;27;20050;-74
2022/04/22 08:38:57;;;;;;;23.55;13.95;;;;;;;11.91;71.06;98748.75;8496209;27;20054;-74
2022/04/22 08:43:00;;;;;;;21.20;12.52;;;;;;;11.70;71.90;98754.06;8533368;27;20050;-73
2022/04/22 08:51:22;;;;;;;19.45;11.70;;;;;;;11.76;70.25;98762.81;8500599;27;20096;-74
2022/04/22 08:55:25;;;;;;;24.40;13.15;;;;;;;11.52;71.50;98757.97;8514295;27;20385;-74
2022/04/22 08:59:26;;;;;;;21.92;13.52;;;;;;;11.46;71.47;98764.66;8479439;27;20050;-73
2022/04/22 09:03:27;;;;;;;23.80;13.48;;;;;;;11.41;71.97;98757.50;8532701;27;20043;-73
2022/04/22 09:07:30;;;;;;;21.60;13.23;;;;;;;11.38;72.14;98763.53;8533185;27;20082;-74
2022/04/22 09:11:37;;;;;;;19.85;12.10;;;;;;;11.33;72.71;98760.22;8532605;27;20091;-74
2022/04/22 09:15:45;;;;;;;21.17;12.82;;;;;;;11.48;72.30;98756.19;8532468;27;20047;-75
2022/04/22 09:19:46;;;;;;;19.95;12.48;;;;;;;11.62;72.67;98751.41;8531523;27;20043;-74
2022/04/22 09:23:47;;;;;;;25.38;13.02;;;;;;;11.99;71.22;98750.63;8532052;27;20061;-74
2022/04/22 09:27:48;;;;;;;21.98;13.40;;;;;;;11.98;70.84;98759.88;8507148;27;20071;-76
2022/04/22 09:31:51;;;;;;;20.45;13.35;;;;;;;12.07;70.38;98760.59;8514653;27;20537;-74
2022/04/22 09:45:08;;;;;;;22.15;13.27;;;;;;;12.95;69.35;98738.81;8516897;27;20035;-74
2022/04/22 09:49:09;;;;;;;15.88;9.88;;;;;;;13.07;67.06;98736.13;8504116;27;20072;-73
2022/04/22 09:53:12;;;;;;;14.48;10.68;;;;;;;12.92;66.52;98744.88;8521544;27;20063;-75
2022/04/22 09:57:13;;;;;;;13.85;10.27;;;;;;;13.09;66.76;98744.72;8509442;27;20489;-74
2022/04/22 10:01:14;;;;;;;18.30;11.48;;;;;;;13.19;66.40;98734.59;8505101;27;20043;-74
2022/04/22 10:05:18;;;;;;;16.88;10.98;;;;;;;13.16;66.60;98727.16;8519044;27;20038;-73
2022/04/22 10:09:22;;;;;;;14.77;10.05;;;;;;;12.76;66.50;98730.34;8504732;27;20442;-74
2022/04/22 10:13:26;;;;;;;20.65;10.60;;;;;;;12.71;67.66;98727.84;8492277;27;20129;-74
2022/04/22 10:17:27;;;;;;;16.48;11.02;;;;;;;12.84;66.71;98732.19;8492812;27;20043;-74
2022/04/22 10:21:28;;;;;;;19.95;11.85;;;;;;;12.99;67.38;98728.88;8504484;27;20039;-76
2022/04/22 10:25:30;;;;;;;16.85;11.63;;;;;;;13.15;66.84;98725.56;8525960;27;20038;-75
2022/04/22 10:29:31;;;;;;;18.40;12.80;;;;;;;13.41;66.97;98717.94;8514258;27;20643;-74
2022/04/22 10:33:46;;;;;;;24.73;13.65;;;;;;;13.70;65.80;98715.03;8496897;27;20365;-76
2022/04/22 10:37:49;;;;;;;21.35;13.90;;;;;;;14.06;64.98;98713.47;8491670;27;20142;-77
2022/04/22 10:41:53;;;;;;;20.27;13.10;;;;;;;14.30;64.60;98699.84;8488688;27;20066;-77
2022/04/22 10:50:24;;;;;;;23.67;14.05;;;;;;;14.68;62.50;98704.88;8520459;27;20039;-77
2022/04/22 10:54:53;;;;;;;20.80;13.68;;;;;;;14.60;61.11;98706.56;8505031;27;20504;-76
2022/04/22 10:59:18;;;;;;;18.67;13.73;;;;;;;14.53;60.89;98698.25;8528059;27;20051;-76
2022/04/22 11:03:40;;;;;;;18.60;13.35;;;;;;;14.67;61.26;98698.63;8505961;27;20135;-76
2022/04/22 11:07:50;;;;;;;20.35;14.68;;;;;;;14.97;61.28;98695.56;8526302;27;20066;-76
2022/04/22 11:11:51;;;;;;;22.23;14.18;;;;;;;15.02;61.06;98703.47;8528407;27;20047;-76
2022/04/22 11:15:56;;;;;;;17.80;13.15;;;;;;;14.87;60.69;98701.50;8492544;27;20058;-76
2022/04/22 11:19:57;;;;;;;19.30;12.55;;;;;;;14.59;60.92;98702.28;8527134;27;20391;-76
2022/04/22 11:23:59;;;;;;;19.80;13.88;;;;;;;14.60;61.03;98701.13;8513897;27;20496;-77
2022/04/22 11:28:02;;;;;;;22.45;13.68;;;;;;;14.52;61.33;98702.09;8476621;27;20473;-76
2022/04/22 11:32:12;;;;;;;24.00;14.30;;;;;;;14.00;61.33;98712.09;8516427;27;20066;-76
2022/04/22 11:36:13;;;;;;;21.45;13.73;;;;;;;13.67;63.32;98710.28;8520318;27;20053;-76
2022/04/22 11:40:20;;;;;;;19.90;13.32;;;;;;;13.42;64.19;98708.69;8500340;27;20058;-76
2022/04/22 11:44:21;;;;;;;21.75;13.18;;;;;;;13.34;65.07;98712.25;8494222;27;20039;-76
2022/04/22 11:48:24;;;;;;;17.15;13.05;;;;;;;13.15;65.60;98709.28;8493606;27;20066;-77
2022/04/22 11:52:31;;;;;;;21.33;14.30;;;;;;;12.95;66.29;98711.69;8495064;27;20113;-76
2022/04/22 11:56:35;;;;;;;22.15;14.40;;;;;;;12.76;66.81;98719.50;8491249;27;20043;-76
2022/04/22 12:09:18;;;;;;;19.98;14.40;;;;;;;12.64;67.65;98711.31;8529894;27;20121;-77
2022/04/22 12:13:20;;;;;;;22.73;14.15;;;;;;;12.77;67.33;98715.69;8535316;27;20064;-76
2022/04/22 12:17:24;;;;;;;20.73;15.07;;;;;;;12.87;67.15;98725.31;8520392;27;20042;-76
2022/04/22 12:21:33;;;;;;;20.98;14.57;;;;;;;12.67;65.94;98716.09;8506650;27;20076;-76
2022/04/22 12:25:34;;;;;;;25.27;15.68;;;;;;;12.50;66.17;98724.34;8499517;27;20086;-77
2022/04/22 12:29:38;;;;;;;23.08;15.20;;;;;;;12.42;66.80;98719.78;8531057;27;20488;-76
2022/04/22 12:33:39;;;;;;;21.55;16.00;;;;;;;12.44;66.36;98728.38;8520728;27;20103;-75
2022/04/22 12:37:44;;;;;;;23.52;16.70;;;;;;;12.33;66.24;98732.56;8497732;27;20041;-76
2022/04/22 12:41:45;;;;;;;25.95;17.55;;;;;;;12.08;66.94;98732.44;8526135;27;20090;-77
2022/04/22 12:54:33;;;;;;;25.85;17.27;;;;;;;11.78;67.69;98733.53;8519514;27;20063;-76
2022/04/22 12:59:01;;;;;;;26.77;18.85;;;;;;;11.60;68.58;98726.56;8484458;27;20126;-76
2022/04/22 13:03:03;;;;;;;26.02;18.33;;;;;;;11.57;69.40;98732.63;8341333;28;20152;-76
2022/04/22 13:07:10;;;;;;;27.30;19.83;;;;;;;11.59;70.03;98730.38;8360176;28;20044;-77
2022/04/22 13:11:11;;;;;;;25.83;19.08;;;;;;;11.53;69.63;98731.69;8359549;28;20049;-76
2022/04/22 13:15:18;;;;;;;27.38;18.25;;;;;;;11.47;69.61;98733.00;8359899;28;20063;-77
2022/04/22 13:19:19;;;;;;;25.60;17.73;;;;;;;11.37;69.92;98734.91;8360123;28;20053;-76
2022/04/22 13:23:23;;;;;;;27.77;18.95;;;;;;;11.31;70.35;98733.53;8359450;28;20072;-76
2022/04/22 13:27:24;;;;;;;26.90;18.50;;;;;;;11.27;70.43;98737.16;8359670;28;20475;-76
2022/04/22 13:31:25;;;;;;;25.25;17.83;;;;;;;11.11;71.17;98736.88;8359623;28;20836;-76
2022/04/22 13:35:26;;;;;;;27.88;17.88;;;;;;;11.16;71.42;98734.00;8359498;28;20079;-76
2022/04/22 13:39:27;;;;;;;21.73;16.50;;;;;;;11.12;71.93;98738.47;8423166;27;20047;-76
2022/04/22 13:43:30;;;;;;;26.27;17.02;;;;;;;10.98;72.45;98727.06;8497958;27;20500;-76
2022/04/22 13:56:10;;;;;;;;;;;;;;;10.59;73.19;98731.53;8528682;27;20046;-76
2022/04/22 14:00:12;;;;;;;15.43;11.07;;;;;;;10.43;73.66;98746.59;8530503;27;20010;-76
2022/04/22 14:04:16;;;;;;;17.98;11.70;;;;;;;10.38;73.88;98741.34;8525762;27;20043;-75
2022/04/22 14:08:17;;;;;;;20.45;10.50;;;;;;;10.39;73.55;98737.56;8487346;27;20043;-77
2022/04/22 14:12:18;;;;;;;24.63;11.57;;;;;;;10.45;73.89;98747.09;8508225;27;20047;-77
2022/04/22 14:16:19;;;;;;;21.15;10.73;;;;;;;10.55;73.50;98740.59;8531019;27;20045;-75
2022/04/22 14:20:20;;;;;;;14.25;8.88;;;;;;;10.55;73.44;98740.59;8508740;27;20431;-76
2022/04/22 14:24:22;;;;;;;12.07;7.90;;;;;;;10.75;73.00;98728.34;8494119;27;20051;-76
2022/04/22 14:28:23;;;;;;;11.25;7.50;;;;;;;10.84;71.90;98738.03;8508711;27;20385;-76
2022/04/22 14:32:24;;;;;;;12.63;7.15;;;;;;;10.98;71.39;98737.88;8502014;27;20046;-76
2022/04/22 14:36:26;;;;;;;15.95;7.20;;;;;;;11.04;70.89;98736.59;8523058;27;20396;-77
2022/04/22 14:40:27;;;;;;;12.65;6.72;;;;;;;11.20;70.01;98726.88;8527730;27;20365;-77
2022/04/22 14:44:28;;;;;;;10.50;7.25;;;;;;;11.08;69.85;98737.53;8521592;27;20436;-77
2022/04/22 14:48:29;;;;;;;10.90;7.70;;;;;;;10.99;70.23;98734.06;8516939;27;20126;-77
2022/04/22 14:52:31;;;;;;;11.07;7.13;;;;;;;10.90;70.79;98730.56;8424260;28;20059;-77
2022/04/22 14:56:32;;;;;;;13.13;7.90;;;;;;;10.79;71.28;98732.00;8440687;28;20394;-78
2022/04/22 15:00:36;;;;;;;12.38;7.15;;;;;;;10.82;71.04;98734.06;8434866;28;20127;-77
2022/04/22 15:04:38;;;;;;;18.52;10.00;;;;;;;10.82;71.33;98734.06;8426443;28;20048;-77
2022/04/22 15:08:38;;;;;;;12.07;7.18;;;;;;;10.93;70.42;98729.94;8449906;28;20055;-77
2022/04/22 15:12:40;;;;;;;9.60;5.80;;;;;;;11.17;68.26;98724.78;8434688;28;20071;-78
2022/04/22 15:16:41;;;;;;;9.48;5.97;;;;;;;11.27;67.22;98719.03;8424993;28;20529;-77
2022/04/22 15:25:01;;;;;;;8.48;5.55;;;;;;;11.37;66.67;98729.50;8509482;27;20050;-77
2022/04/22 15:29:04;;;;;;;8.65;6.00;;;;;;;11.52;66.13;98724.72;8482168;27;20057;-77
2022/04/22 15:33:05;;;;;;;8.68;5.30;;;;;;;11.66;65.95;98725.28;8526057;27;20055;-77
2022/04/22 15:37:06;;;;;;;10.23;6.00;;;;;;;11.73;64.86;98720.19;8523005;27;20163;-77
2022/04/22 15:41:09;;;;;;;8.80;6.00;;;;;;;11.64;64.79;98722.09;8524138;27;20051;-77
2022/04/22 15:45:10;;;;;;;9.57;5.80;;;;;;;11.72;65.66;98718.56;8523885;27;20137;-77
2022/04/22 15:49:11;;;;;;;13.25;5.25;;;;;;;11.74;65.11;98716.34;8519432;27;20503;-76
2022/04/22 15:53:12;;;;;;;10.65;5.70;;;;;;;11.59;65.05;98724.97;8520599;27;20481;-79
2022/04/22 15:57:14;;;;;;;7.70;4.93;;;;;;;11.55;63.96;98724.03;8516895;27;20039;-77
2022/04/22 16:01:16;;;;;;;8.18;5.10;;;;;;;11.48;64.39;98734.56;8525611;27;20568;-80
2022/04/22 16:05:17;;;;;;;9.20;6.00;;;;;;;11.42;64.71;98737.44;8517626;27;20070;-78
2022/04/22 16:09:19;;;;;;;8.70;5.63;;;;;;;11.43;64.17;98728.22;8478785;27;20428;-78
2022/04/22 16:17:40;;;;;;;10.40;5.50;;;;;;;11.47;64.59;98705.97;8511573;27;20043;-79
2022/04/22 16:21:41;;;;;;;13.35;6.30;;;;;;;11.51;64.38;98723.13;8522862;27;20424;-78
2022/04/22 16:25:42;;;;;;;10.98;6.78;;;;;;;11.43;64.83;98714.69;8511783;27;20039;-78
2022/04/22 16:29:43;;;;;;;10.25;6.82;;;;;;;11.37;65.41;98710.59;8526816;27;20399;-78
2022/04/22 16:33:44;;;;;;;11.15;6.43;;;;;;;11.33;65.27;98717.75;8473774;27;20098;-78
2022/04/22 16:37:46;;;;;;;11.75;7.03;;;;;;;11.27;65.78;98724.44;8503372;27;20642;-78
2022/04/22 16:41:50;;;;;;;11.85;7.53;;;;;;;11.17;65.77;98729.41;8504262;27;20043;-79
2022/04/22 16:45:51;;;;;;;13.02;7.90;;;;;;;11.10;65.51;98724.50;8495716;27;20484;-78
2022/04/22 16:49:53;;;;;;;13.32;8.43;;;;;;;10.97;65.88;98725.47;8516206;27;20405;-78
2022/04/22 16:53:54;;;;;;;15.23;9.23;;;;;;;10.82;66.71;98723.25;8478163;27;20143;-77
2022/04/22 16:57:55;;;;;;;12.95;9.05;;;;;;;10.76;67.01;98724.53;8513957;27;20107;-76
2022/04/22 17:01:58;;;;;;;17.90;9.38;;;;;;;10.64;67.65;98716.28;8476279;27;20047;-77
2022/04/22 17:06:00;;;;;;;19.55;10.13;;;;;;;10.54;67.80;98723.59;8521354;27;20381;-77
2022/04/22 17:10:01;;;;;;;25.67;15.10;;;;;;;10.38;68.27;98730.56;8514195;27;20054;-77
2022/04/22 17:22:43;;;;;;;16.50;9.40;;;;;;;10.00;69.30;98745.69;8526438;27;20069;-79
2022/04/22 17:26:44;;;;;;;16.85;10.15;;;;;;;9.92;69.79;98749.16;8474200;27;20061;-83
2022/04/22 17:30:46;;;;;;;21.10;11.77;;;;;;;9.79;70.73;98750.06;8518639;27;20039;-78
2022/04/22 17:34:46;;;;;;;18.02;10.32;;;;;;;9.65;71.33;98750.97;8500296;27;20051;-80
2022/04/22 17:38:48;;;;;;;15.98;9.80;;;;;;;9.45;72.00;98756.91;8528737;27;20054;-88
2022/04/22 17:42:49;;;;;;;18.33;9.65;;;;;;;9.30;72.21;98760.00;8524782;27;20050;-79
2022/04/22 17:46:50;;;;;;;16.63;9.85;;;;;;;9.14;73.04;98750.72;8511189;27;20051;-79
2022/04/22 17:50:51;;;;;;;17.48;11.07;;;;;;;9.01;73.29;98762.34;8522681;27;20050;-79
2022/04/22 17:54:53;;;;;;;20.67;12.57;;;;;;;8.86;73.84;98761.59;8493635;27;20050;-79
2022/04/22 17:58:54;;;;;;;16.27;10.77;;;;;;;8.77;74.17;98759.94;8478556;27;20493;-79
2022/04/22 18:02:55;;;;;;;21.65;13.02;;;;;;;8.70;74.70;98765.75;8508401;27;20050;-79
2022/04/22 18:06:55;;;;;;;25.67;14.73;;;;;;;8.58;74.93;98757.41;8530029;27;20452;-78
2022/04/22 18:10:57;;;;;;;33.47;16.08;;;;;;;8.47;75.37;98775.66;8525576;27;20049;-79
2022/04/22 18:19:18;;;;;;;28.67;12.45;;;;;;;8.16;76.60;98768.53;8527742;27;20340;-79
2022/04/22 18:23:20;;;;;;;25.63;13.15;;;;;;;8.04;76.74;98772.50;8468383;27;20584;-78
2022/04/22 18:27:21;;;;;;;34.85;14.00;;;;;;;7.93;77.19;98781.88;8526410;27;20420;-79
2022/04/22 18:31:22;;;;;;;35.28;15.38;;;;;;;7.82;77.63;98783.19;8477641;27;20058;-79
2022/04/22 18:35:23;;;;;;;34.58;15.05;;;;;;;7.71;77.93;98789.84;8487030;27;20053;-79
2022/04/22 18:39:24;;;;;;;39.90;16.25;;;;;;;7.61;78.33;98784.66;8526762;27;20055;-79
2022/04/22 18:43:26;;;;;;;43.65;17.65;;;;;;;7.53;79.18;98788.03;8509693;27;20038;-80
2022/04/22 18:47:27;;;;;;;34.30;16.10;;;;;;;7.40;79.31;98788.81;8512002;27;20035;-79
2022/04/22 18:51:28;;;;;;;34.35;15.23;;;;;;;7.28;79.63;98785.78;8527110;27;20058;-79
2022/04/22 18:55:29;;;;;;;32.65;16.38;;;;;;;7.12;79.88;98783.34;8525874;27;20041;-79
2022/04/22 18:59:30;;;;;;;56.03;29.85;;;;;;;7.04;80.04;98786.69;8529575;27;20082;-76
2022/04/22 19:03:31;;;;;;;45.13;24.75;;;;;;;6.96;80.34;98790.06;8523719;27;20131;-76
2022/04/22 19:07:33;;;;;;;40.65;22.98;;;;;;;6.86;80.52;98790.22;8518295;27;20047;-76
2022/04/22 19:11:34;;;;;;;22.73;12.98;;;;;;;6.82;80.57;98789.19;8458500;27;20108;-76
2022/04/22 19:15:36;;;;;;;25.02;14.23;;;;;;;6.78;80.28;98788.19;8508838;27;20057;-77
2022/04/22 19:19:37;;;;;;;22.13;12.27;;;;;;;6.79;79.54;98784.41;8509879;27;20041;-76
2022/04/22 19:23:39;;;;;;;19.73;10.50;;;;;;;6.75;78.79;98778.03;8518738;27;20035;-76
2022/04/22 19:27:40;;;;;;;24.20;10.48;;;;;;;6.75;78.49;98773.47;8492218;27;20461;-77
2022/04/22 19:31:41;;;;;;;19.42;10.38;;;;;;;6.72;77.86;98773.22;8525918;27;20169;-76
2022/04/22 19:35:43;;;;;;;19.17;10.35;;;;;;;6.71;77.28;98766.28;8507023;27;20054;-76
2022/04/22 19:44:04;;;;;;;;;;;;;;;6.75;75.36;98772.66;8525320;27;20046;-76
2022/04/22 19:48:06;;;;;;;13.35;6.90;;;;;;;6.83;73.59;98774.69;8503020;27;19965;-76
2022/04/22 19:52:07;;;;;;;12.82;7.30;;;;;;;6.83;73.10;98768.50;8507262;27;20088;-76
2022/04/22 19:56:08;;;;;;;13.43;6.97;;;;;;;6.79;72.96;98773.69;8526213;27;20488;-76
2022/04/22 20:00:10;;;;;;;11.32;6.90;;;;;;;6.75;72.94;98772.66;8473083;27;20126;-76
2022/04/22 20:04:11;;;;;;;13.75;6.38;;;;;;;6.77;72.16;98770.47;8519192;27;20046;-76
2022/04/22 20:08:14;;;;;;;12.65;6.78;;;;;;;6.72;72.33;98778.59;8470606;27;20496;-76
2022/04/22 20:12:16;;;;;;;12.45;6.88;;;;;;;6.68;72.32;98777.59;8507304;27;20043;-76
2022/04/22 20:16:18;;;;;;;10.82;6.45;;;;;;;6.63;72.16;98780.34;8518249;27;20057;-76
2022/04/22 20:20:20;;;;;;;10.32;6.72;;;;;;;6.60;72.29;98786.31;8519260;27;20039;-76
2022/04/22 20:24:21;;;;;;;8.93;6.10;;;;;;;6.63;72.10;98785.72;8498231;27;20507;-77
2022/04/22 20:28:22;;;;;;;10.75;6.65;;;;;;;6.60;72.02;98791.69;8519533;27;20043;-76
2022/04/22 20:32:23;;;;;;;11.10;6.70;;;;;;;6.57;72.38;98792.25;8515292;27;20500;-76